Time;durP1;ratioP1;P1;durP2;ratioP2;P2;SDS_P1;SDS_P2;PMS_P1;PMS_P2;Temp;Humidity;BMP_temperature;BMP_pressure;BME280_temperature;BME280_humidity;BME280_pressure;Samples;Min_cycle;Max_cycle;Signal;HPM_P1;HPM_P2
2023/04/22 00:01:02;;;;;;;;;19.25;16.75;;;;;21.46;35.55;100025.28;5076794;27;45483;-62
2023/04/22 00:03:28;;;;;;;;;18.00;15.75;;;;;21.43;34.96;100026.34;5077530;27;71715;-62
2023/04/22 00:05:54;;;;;;;;;21.00;16.00;;;;;21.46;34.96;100030.63;5076700;27;46338;-62
2023/04/22 00:08:19;;;;;;;;;19.50;18.25;;;;;21.44;35.26;100032.50;5069240;28;45360;-62
2023/04/22 00:10:45;;;;;;;;;17.50;17.25;;;;;21.45;35.06;100034.22;5076565;27;63814;-62
2023/04/22 00:13:10;;;;;;;;;17.00;13.00;;;;;21.42;35.04;100032.66;5075275;27;45242;-62
2023/04/22 00:15:35;;;;;;;;;17.00;15.25;;;;;21.43;35.02;100029.00;5076663;27;69938;-62
2023/04/22 00:18:01;;;;;;;;;14.25;14.00;;;;;21.45;35.10;100038.69;5074274;28;70382;-62
2023/04/22 00:20:26;;;;;;;;;13.75;13.25;;;;;21.41;35.35;100033.63;5078236;27;45560;-62
2023/04/22 00:22:51;;;;;;;;;15.00;15.00;;;;;21.43;35.40;100037.00;5069477;28;69029;-62
2023/04/22 00:25:17;;;;;;;;;16.75;13.00;;;;;21.42;34.88;100037.13;5070728;27;75082;-62
2023/04/22 00:27:43;;;;;;;;;15.25;13.75;;;;;21.42;34.88;100034.47;5068627;27;45437;-62
2023/04/22 00:30:09;;;;;;;;;16.00;13.75;;;;;21.41;35.32;100022.16;5078303;28;45196;-62
2023/04/22 00:32:35;;;;;;;;;18.25;15.50;;;;;21.37;35.41;100026.00;5076971;28;45304;-62
2023/04/22 00:35:01;;;;;;;;;11.50;10.75;;;;;21.39;34.97;100024.94;5071557;28;46536;-61
2023/04/22 00:37:27;;;;;;;;;18.50;15.25;;;;;21.37;34.98;100026.88;5073528;27;54724;-62
2023/04/22 00:39:53;;;;;;;;;18.00;13.50;;;;;21.38;35.18;100028.56;5078323;27;45411;-62
2023/04/22 00:42:18;;;;;;;;;19.25;14.00;;;;;21.36;34.90;100021.69;5077008;27;45394;-62
2023/04/22 00:44:45;;;;;;;;;13.75;13.50;;;;;21.37;34.85;100028.69;5077581;27;73786;-62
2023/04/22 00:47:11;;;;;;;;;13.25;13.00;;;;;21.37;35.30;100020.69;5079922;27;45820;-62
2023/04/22 00:49:37;;;;;;;;;15.75;11.50;;;;;21.31;34.88;100023.88;5082250;27;45153;-62
2023/04/22 00:52:02;;;;;;;;;13.50;12.50;;;;;21.35;35.30;100034.13;5077523;27;45493;-62
2023/04/22 00:54:28;;;;;;;;;15.00;12.50;;;;;21.33;35.00;100022.75;5081422;27;45233;-62
2023/04/22 00:56:55;;;;;;;;;18.75;12.75;;;;;21.35;34.93;100022.63;5069956;28;58821;-62
2023/04/22 00:59:22;;;;;;;;;16.50;13.75;;;;;21.28;34.85;100008.16;5080661;28;45320;-62
2023/04/22 01:01:47;;;;;;;;;20.00;15.00;;;;;21.34;35.36;100013.81;5076344;27;45358;-62
2023/04/22 01:04:14;;;;;;;;;15.25;12.50;;;;;21.34;35.02;100015.66;5080864;27;46396;-62
2023/04/22 01:06:40;;;;;;;;;18.00;15.00;;;;;21.32;35.06;100005.13;5078487;27;45346;-62
2023/04/22 01:09:06;;;;;;;;;15.00;12.75;;;;;21.30;35.24;99991.09;5078491;27;45303;-62
2023/04/22 01:11:33;;;;;;;;;17.50;14.75;;;;;21.31;35.40;99990.13;5076985;27;45391;-62
2023/04/22 01:13:58;;;;;;;;;15.25;13.75;;;;;21.31;35.11;99986.63;5059454;27;46685;-63
2023/04/22 01:16:24;;;;;;;;;15.50;11.75;;;;;21.30;35.23;99983.13;5077148;27;65946;-62
2023/04/22 01:18:51;;;;;;;;;15.75;12.25;;;;;21.29;35.02;99976.09;5075960;27;45339;-62
2023/04/22 01:21:18;;;;;;;;;13.25;12.00;;;;;21.27;34.78;99972.72;5078990;27;45553;-62
2023/04/22 01:23:44;;;;;;;;;13.25;12.75;;;;;21.27;34.79;99972.72;5081798;27;47133;-62
2023/04/22 01:26:09;;;;;;;;;14.00;12.25;;;;;21.28;35.30;99971.72;5079895;27;45456;-62
2023/04/22 01:28:35;;;;;;;;;14.00;13.50;;;;;21.29;34.82;99961.97;5071087;27;45558;-62
2023/04/22 01:31:00;;;;;;;;;14.00;11.50;;;;;21.25;35.06;99953.38;5067751;27;66614;-62
2023/04/22 01:33:25;;;;;;;;;15.75;12.75;;;;;21.27;34.79;99959.41;5078764;27;73418;-62
2023/04/22 01:35:51;;;;;;;;;13.25;12.25;;;;;21.27;34.75;99958.59;5080411;27;45374;-62
2023/04/22 01:38:17;;;;;;;;;12.50;12.00;;;;;21.26;34.75;99964.88;5077703;27;66073;-62
2023/04/22 01:40:42;;;;;;;;;13.00;11.25;;;;;21.26;35.24;99956.88;5079820;27;45251;-63
2023/04/22 01:43:07;;;;;;;;;10.75;10.75;;;;;21.26;35.18;99962.22;5079021;27;48827;-62
2023/04/22 01:45:33;;;;;;;;;11.75;11.50;;;;;21.25;35.15;99956.06;5082042;27;45378;-63
2023/04/22 01:47:58;;;;;;;;;14.75;11.75;;;;;21.24;35.42;99951.69;5077786;27;69015;-62
2023/04/22 01:50:23;;;;;;;;;14.25;11.75;;;;;21.22;34.85;99951.81;5081516;27;63185;-62
2023/04/22 01:52:49;;;;;;;;;11.75;7.75;;;;;21.23;34.69;99942.88;5073362;28;45523;-63
2023/04/22 01:55:14;;;;;;;;;11.75;11.50;;;;;21.21;34.92;99931.53;5082038;27;45206;-62
2023/04/22 01:57:40;;;;;;;;;14.00;12.00;;;;;21.23;34.64;99947.34;5074221;27;67185;-62
2023/04/22 02:00:07;;;;;;;;;12.00;9.00;;;;;21.21;35.07;99942.16;5080190;28;45420;-62
2023/04/22 02:02:32;;;;;;;;;13.50;12.00;;;;;21.22;35.24;99925.19;5075740;27;45690;-62
2023/04/22 02:04:58;;;;;;;;;10.75;9.00;;;;;21.21;35.36;99912.03;5081604;27;45307;-62
2023/04/22 02:07:23;;;;;;;;;15.25;12.00;;;;;21.19;34.76;99914.81;5071519;27;56890;-62
2023/04/22 02:09:49;;;;;;;;;11.75;11.00;;;;;21.18;35.31;99897.19;5053115;28;45711;-62
2023/04/22 02:12:14;;;;;;;;;10.25;10.00;;;;;21.20;35.13;99899.72;5079525;28;46659;-62
2023/04/22 02:14:40;;;;;;;;;14.00;11.50;;;;;21.19;35.29;99893.53;5062296;28;63225;-62
2023/04/22 02:17:05;;;;;;;;;13.00;10.00;;;;;21.20;35.38;99907.69;5074542;27;45377;-62
2023/04/22 02:19:30;;;;;;;;;10.75;9.75;;;;;21.16;34.81;99898.25;5073053;27;69605;-62
2023/04/22 02:21:56;;;;;;;;;9.75;9.75;;;;;21.17;35.02;99921.25;5070513;27;77423;-63
2023/04/22 02:24:21;;;;;;;;;11.00;11.00;;;;;21.18;34.87;99922.94;5081679;27;45897;-62
2023/04/22 02:26:47;;;;;;;;;13.50;10.75;;;;;21.16;35.39;99917.75;5078124;27;61338;-62
2023/04/22 02:29:13;;;;;;;;;9.00;9.00;;;;;21.18;35.24;99909.66;5066524;28;45474;-62
2023/04/22 02:31:39;;;;;;;;;11.25;11.25;;;;;21.15;34.89;99905.41;5077826;27;46308;-62
2023/04/22 02:34:04;;;;;;;;;10.00;10.00;;;;;21.16;35.04;99915.09;5081188;27;45435;-62
2023/04/22 02:36:31;;;;;;;;;8.50;8.00;;;;;21.16;34.73;99915.09;5078045;27;45374;-63
2023/04/22 02:38:56;;;;;;;;;11.25;10.00;;;;;21.12;34.70;99905.66;5080289;27;45365;-62
2023/04/22 02:41:22;;;;;;;;;10.00;10.00;;;;;21.14;34.84;99909.06;5078891;28;46220;-63
2023/04/22 02:43:47;;;;;;;;;8.50;8.00;;;;;21.15;35.07;99912.56;5080442;27;45365;-62
2023/04/22 02:46:14;;;;;;;;;9.50;8.75;;;;;21.14;35.07;99916.19;5078647;28;45341;-62
2023/04/22 02:48:40;;;;;;;;;10.75;10.00;;;;;21.14;34.84;99917.03;5080556;27;45458;-62
2023/04/22 02:51:05;;;;;;;;;9.25;9.25;;;;;21.12;34.98;99904.81;5077787;27;45352;-62
2023/04/22 02:53:31;;;;;;;;;11.75;9.00;;;;;21.13;35.25;99909.19;5079054;27;45289;-62
2023/04/22 02:55:57;;;;;;;;;10.00;9.00;;;;;21.13;34.85;99901.22;5077957;27;65526;-62
2023/04/22 02:58:22;;;;;;;;;9.00;8.50;;;;;21.12;35.10;99905.66;5079317;27;45534;-63
2023/04/22 03:00:48;;;;;;;;;11.75;10.25;;;;;21.12;35.25;99902.16;5079024;27;45459;-62
2023/04/22 03:03:13;;;;;;;;;10.00;8.25;;;;;21.12;35.14;99908.31;5079472;27;45454;-62
2023/04/22 03:05:39;;;;;;;;;8.25;8.00;;;;;21.11;35.04;99905.81;5078317;28;45428;-62
2023/04/22 03:08:04;;;;;;;;;10.50;9.50;;;;;21.12;34.73;99894.19;5074031;28;45543;-62
2023/04/22 03:10:31;;;;;;;;;9.75;8.50;;;;;21.04;34.68;99882.38;5078511;27;66210;-62
2023/04/22 03:12:56;;;;;;;;;13.25;10.50;;;;;21.11;34.84;99879.22;5073196;27;45824;-62
2023/04/22 03:15:22;;;;;;;;;14.25;10.00;;;;;21.08;35.26;99868.81;5079407;27;45521;-63
2023/04/22 03:17:47;;;;;;;;;8.50;8.50;;;;;21.10;35.09;99865.03;5078307;28;52033;-62
2023/04/22 03:20:13;;;;;;;;;12.00;9.75;;;;;21.10;34.71;99873.03;5078977;27;45347;-62
2023/04/22 03:22:39;;;;;;;;;9.25;8.00;;;;;21.07;34.99;99862.66;5076670;27;45788;-62
2023/04/22 03:25:05;;;;;;;;;11.50;9.75;;;;;21.02;35.16;99847.09;5071207;27;45469;-62
2023/04/22 03:27:30;;;;;;;;;12.00;8.75;;;;;21.07;34.85;99852.03;5078366;28;45478;-62
2023/04/22 03:29:56;;;;;;;;;10.25;8.75;;;;;21.08;35.03;99844.88;5078770;27;51167;-62
2023/04/22 03:32:21;;;;;;;;;9.75;9.25;;;;;21.09;34.79;99846.56;5072980;27;45424;-62
2023/04/22 03:34:46;;;;;;;;;8.00;8.00;;;;;21.04;35.22;99831.00;5080445;27;45351;-62
2023/04/22 03:37:12;;;;;;;;;9.00;8.00;;;;;21.02;34.83;99823.16;5078023;28;45417;-62
2023/04/22 03:39:37;;;;;;;;;10.75;10.50;;;;;21.07;35.13;99828.09;5060956;27;46471;-63
2023/04/22 03:42:03;;;;;;;;;10.00;10.00;;;;;21.03;34.85;99827.50;5076940;27;63479;-62
2023/04/22 03:44:28;;;;;;;;;10.50;8.00;;;;;21.07;34.80;99840.53;5078526;27;45347;-62
2023/04/22 03:46:53;;;;;;;;;11.00;9.25;;;;;21.06;34.93;99842.34;5076601;27;69389;-62
2023/04/22 03:49:18;;;;;;;;;11.25;11.25;;;;;21.02;34.75;99839.09;5077791;27;67478;-62
2023/04/22 03:51:44;;;;;;;;;9.25;8.25;;;;;21.02;34.93;99841.78;5076401;27;54989;-62
2023/04/22 03:54:09;;;;;;;;;9.25;7.00;;;;;21.05;35.12;99844.19;5075790;28;56168;-62
2023/04/22 03:56:35;;;;;;;;;10.25;9.25;;;;;21.05;34.86;99841.50;5077896;27;45415;-62
2023/04/22 03:59:00;;;;;;;;;12.25;10.00;;;;;21.04;35.18;99841.63;5075098;28;45409;-63
2023/04/22 04:01:26;;;;;;;;;10.00;8.25;;;;;21.03;34.88;99831.97;5075401;27;56288;-62
2023/04/22 04:03:51;;;;;;;;;8.00;7.25;;;;;20.99;35.31;99826.06;5077969;28;45294;-62
2023/04/22 04:06:17;;;;;;;;;9.00;9.00;;;;;21.03;34.63;99816.88;5066919;27;45315;-62
2023/04/22 04:08:42;;;;;;;;;5.50;5.50;;;;;21.02;35.08;99804.53;5071628;28;72147;-62
2023/04/22 04:11:08;;;;;;;;;8.50;7.75;;;;;21.03;35.18;99805.34;5070139;27;45473;-63
2023/04/22 04:13:33;;;;;;;;;11.00;9.75;;;;;20.99;34.86;99826.06;5076304;28;45481;-62
2023/04/22 04:15:59;;;;;;;;;9.75;8.50;;;;;21.02;35.06;99841.78;5066758;27;71319;-62
2023/04/22 04:18:25;;;;;;;;;8.25;8.00;;;;;21.02;35.33;99841.78;5078235;28;45620;-62
2023/04/22 04:20:51;;;;;;;;;10.00;6.75;;;;;21.00;34.82;99805.63;5072626;27;45786;-62
2023/04/22 04:23:16;;;;;;;;;6.00;6.00;;;;;21.01;34.80;99799.34;5072704;27;45564;-63
2023/04/22 04:25:42;;;;;;;;;8.00;8.00;;;;;21.00;35.10;99784.34;5075755;27;46823;-62
2023/04/22 04:28:09;;;;;;;;;10.75;8.00;;;;;21.01;35.34;99764.75;5072774;27;46737;-63
2023/04/22 04:30:35;;;;;;;;;8.00;8.00;;;;;21.00;35.13;99747.09;5072325;27;45484;-62
2023/04/22 04:33:05;;;;;;;;;5.75;5.50;;;;;20.98;35.11;99752.56;5071352;27;45492;-62
2023/04/22 04:35:33;;;;;;;;;11.00;8.00;;;;;21.00;34.85;99763.06;5074350;27;45347;-62
2023/04/22 04:37:59;;;;;;;;;9.00;7.25;;;;;20.99;35.20;99775.53;5080285;27;47011;-62
2023/04/22 04:40:25;;;;;;;;;9.50;9.00;;;;;20.99;35.35;99785.31;5077435;27;45332;-62
2023/04/22 04:42:51;;;;;;;;;10.00;8.00;;;;;20.98;35.35;99807.56;5079541;27;45590;-63
2023/04/22 04:45:18;;;;;;;;;8.00;7.25;;;;;20.99;34.84;99825.22;5082840;27;45343;-62
2023/04/22 04:47:43;;;;;;;;;9.25;8.75;;;;;20.98;35.43;99800.44;5079746;27;45499;-62
2023/04/22 04:50:09;;;;;;;;;8.00;6.75;;;;;20.97;35.20;99776.66;5082526;27;45396;-63
2023/04/22 04:52:35;;;;;;;;;11.25;9.00;;;;;20.92;35.45;99754.91;5076948;27;45418;-62
2023/04/22 04:55:00;;;;;;;;;9.50;7.25;;;;;20.99;35.33;99764.03;5074354;27;45283;-62
2023/04/22 04:57:25;;;;;;;;;8.75;8.00;;;;;20.96;35.52;99782.94;5077101;27;63713;-63
2023/04/22 04:59:51;;;;;;;;;7.50;6.50;;;;;20.96;35.43;99783.75;5078256;27;45360;-62
2023/04/22 05:02:16;;;;;;;;;9.75;6.50;;;;;20.97;35.01;99761.50;5075912;27;45393;-62
2023/04/22 05:04:41;;;;;;;;;9.75;9.00;;;;;20.96;35.37;99738.53;5080420;27;63416;-62
2023/04/22 05:07:07;;;;;;;;;8.25;7.50;;;;;20.96;35.36;99729.72;5070906;27;64115;-62
2023/04/22 05:09:36;;;;;;;;;9.75;9.00;;;;;20.96;35.35;99727.06;5081145;27;45419;-62
2023/04/22 05:12:02;;;;;;;;;8.00;8.00;;;;;20.93;34.98;99740.63;5075804;27;45415;-62
2023/04/22 05:14:29;;;;;;;;;6.25;6.00;;;;;20.95;35.53;99714.75;5076735;27;45494;-63
2023/04/22 05:16:54;;;;;;;;;6.00;6.00;;;;;20.95;35.64;99734.22;5075189;27;45426;-62
2023/04/22 05:19:20;;;;;;;;;8.50;8.50;;;;;20.95;35.22;99746.69;5082008;27;45846;-62
2023/04/22 05:21:45;;;;;;;;;8.25;8.25;;;;;20.94;35.17;99759.13;5079295;27;45234;-62
2023/04/22 05:24:10;;;;;;;;;9.25;8.00;;;;;20.92;35.75;99782.34;5081617;27;51531;-63
2023/04/22 05:26:36;;;;;;;;;8.25;6.00;;;;;20.92;35.44;99786.84;5080301;27;45401;-63
2023/04/22 05:29:01;;;;;;;;;9.25;8.75;;;;;20.94;35.31;99808.81;5071632;27;60005;-62
2023/04/22 05:31:27;;;;;;;;;8.75;8.00;;;;;20.91;35.52;99791.31;5079047;27;45432;-62
2023/04/22 05:33:53;;;;;;;;;8.75;7.25;;;;;20.91;35.37;99774.50;5082160;27;45263;-62
2023/04/22 05:36:18;;;;;;;;;9.75;8.25;;;;;20.92;35.19;99768.22;5078826;27;45928;-62
2023/04/22 05:38:43;;;;;;;;;9.00;8.75;;;;;20.91;35.38;99766.50;5080785;27;53661;-62
2023/04/22 05:41:09;;;;;;;;;10.25;7.75;;;;;20.92;35.81;99798.31;5078551;28;60078;-62
2023/04/22 05:43:34;;;;;;;;;9.75;7.75;;;;;20.92;35.36;99819.56;5079350;28;64726;-62
2023/04/22 05:45:59;;;;;;;;;7.75;7.75;;;;;20.91;35.81;99833.88;5078503;27;59353;-62
2023/04/22 05:48:25;;;;;;;;;9.50;7.00;;;;;20.88;35.90;99839.44;5069784;27;45388;-62
2023/04/22 05:50:50;;;;;;;;;7.25;6.50;;;;;20.89;35.47;99840.28;5058087;28;45337;-62
2023/04/22 05:53:16;;;;;;;;;6.75;6.00;;;;;20.91;35.58;99847.16;5076424;27;53830;-62
2023/04/22 05:55:42;;;;;;;;;8.00;7.00;;;;;20.92;35.46;99840.84;5070703;27;47102;-63
2023/04/22 05:58:07;;;;;;;;;6.50;6.50;;;;;20.91;35.55;99817.91;5075923;27;45461;-63
2023/04/22 06:00:33;;;;;;;;;6.50;6.50;;;;;20.89;36.07;99792.41;5071331;28;51579;-62
2023/04/22 06:02:58;;;;;;;;;8.25;5.75;;;;;20.88;36.07;99786.25;5078936;27;45858;-62
2023/04/22 06:05:24;;;;;;;;;7.00;5.75;;;;;20.87;35.88;99800.50;5071291;27;46755;-62
2023/04/22 06:07:49;;;;;;;;;9.25;7.75;;;;;20.89;35.99;99803.03;5042735;28;45379;-63
2023/04/22 06:10:14;;;;;;;;;10.50;7.25;;;;;20.90;36.17;99818.88;5080605;27;66408;-63
2023/04/22 06:12:40;;;;;;;;;9.50;7.00;;;;;20.91;36.05;99827.69;5078693;27;70521;-63
2023/04/22 06:15:05;;;;;;;;;6.50;6.00;;;;;20.90;36.18;99834.84;5080961;27;45413;-63
2023/04/22 06:17:31;;;;;;;;;8.25;8.00;;;;;20.90;35.86;99826.03;5075818;27;46284;-62
2023/04/22 06:19:56;;;;;;;;;9.00;6.00;;;;;20.90;36.30;99810.06;5081360;27;45789;-62
2023/04/22 06:22:21;;;;;;;;;7.25;7.25;;;;;20.90;36.33;99810.06;5078073;27;51926;-63
2023/04/22 06:24:47;;;;;;;;;9.00;6.00;;;;;20.92;36.52;99814.25;5070211;28;72064;-62
2023/04/22 06:27:12;;;;;;;;;8.50;5.25;;;;;20.92;36.52;99808.09;5074513;27;66255;-62
2023/04/22 06:29:37;;;;;;;;;9.25;8.00;;;;;20.92;36.56;99816.91;5079113;28;45350;-62
2023/04/22 06:32:03;;;;;;;;;6.50;6.50;;;;;20.88;36.66;99807.53;5074308;27;49335;-62
2023/04/22 06:34:28;;;;;;;;;11.00;7.50;;;;;20.94;36.89;99814.97;5080184;27;46332;-62
2023/04/22 06:36:54;;;;;;;;;7.25;5.50;;;;;20.98;36.77;99828.84;5076982;27;69280;-63
2023/04/22 06:39:19;;;;;;;;;12.25;8.00;;;;;20.99;36.74;99831.38;5077840;28;64849;-63
2023/04/22 06:41:45;;;;;;;;;14.75;10.50;;;;;20.96;36.52;99822.81;5074053;27;45624;-62
2023/04/22 06:44:10;;;;;;;;;9.25;9.00;;;;;21.02;36.72;99841.78;5077336;27;46261;-64
2023/04/22 06:46:37;;;;;;;;;12.25;8.50;;;;;21.03;37.10;99831.97;5081991;27;45432;-62
2023/04/22 06:49:02;;;;;;;;;10.25;8.50;;;;;21.07;36.94;99835.19;5079070;27;45440;-62
2023/04/22 06:51:29;;;;;;;;;10.75;9.00;;;;;21.05;37.26;99828.22;5077949;27;45513;-62
2023/04/22 06:53:54;;;;;;;;;10.50;7.50;;;;;21.10;36.98;99829.63;5082592;27;46048;-62
2023/04/22 06:56:19;;;;;;;;;16.25;14.50;;;;;21.04;37.62;99817.69;5076136;28;63646;-62
2023/04/22 06:58:45;;;;;;;;;21.25;16.00;;;;;21.13;37.49;99824.06;5078845;27;45395;-61
2023/04/22 07:01:10;;;;;;;;;15.50;15.00;;;;;21.12;37.64;99811.72;5090578;27;45378;-62
2023/04/22 07:03:35;;;;;;;;;19.00;13.75;;;;;21.13;37.98;99806.25;5075335;27;56314;-61
2023/04/22 07:06:01;;;;;;;;;18.00;13.75;;;;;21.14;37.68;99810.63;5081446;27;62270;-61
2023/04/22 07:08:26;;;;;;;;;16.25;13.25;;;;;21.17;37.95;99815.66;5060468;28;45378;-62
2023/04/22 07:10:52;;;;;;;;;12.00;12.00;;;;;21.17;37.66;99815.66;5078889;27;45370;-61
2023/04/22 07:13:17;;;;;;;;;13.25;10.50;;;;;21.18;38.09;99801.38;5077789;27;75192;-62
2023/04/22 07:15:42;;;;;;;;;12.75;8.25;;;;;21.18;38.11;99795.22;5068005;27;54280;-62
2023/04/22 07:18:08;;;;;;;;;8.75;8.25;;;;;21.20;37.83;99806.59;5082741;27;45253;-62
2023/04/22 07:20:33;;;;;;;;;12.00;8.75;;;;;21.22;38.10;99800.13;5082320;27;71941;-62
2023/04/22 07:22:58;;;;;;;;;7.00;7.00;;;;;21.22;38.09;99802.78;5070877;27;48471;-62
2023/04/22 07:25:24;;;;;;;;;8.00;8.00;;;;;21.24;38.22;99794.69;5071027;27;66357;-62
2023/04/22 07:27:49;;;;;;;;;9.50;8.25;;;;;21.28;38.03;99804.06;5071359;27;45258;-62
2023/04/22 07:30:15;;;;;;;;;6.75;6.75;;;;;21.29;37.79;99811.09;5077248;27;46040;-62
2023/04/22 07:32:40;;;;;;;;;7.50;7.50;;;;;21.33;38.21;99811.66;5072268;28;45415;-62
2023/04/22 07:35:06;;;;;;;;;8.75;8.00;;;;;21.34;38.08;99808.06;5085569;27;72343;-62
2023/04/22 07:37:31;;;;;;;;;10.50;8.25;;;;;21.36;38.09;99812.25;5072202;27;45419;-62
2023/04/22 07:39:56;;;;;;;;;6.25;6.25;;;;;21.38;38.21;99809.47;5072199;28;58462;-62
2023/04/22 07:42:22;;;;;;;;;9.00;7.50;;;;;21.31;38.39;99797.66;5068146;27;67950;-62
2023/04/22 07:44:47;;;;;;;;;7.25;6.50;;;;;21.43;37.78;99805.41;5076160;27;69436;-62
2023/04/22 07:47:12;;;;;;;;;7.50;7.00;;;;;21.45;38.12;99813.28;5074855;27;45436;-63
2023/04/22 07:49:38;;;;;;;;;7.75;7.00;;;;;21.47;37.88;99814.00;5080254;27;73235;-63
2023/04/22 07:52:03;;;;;;;;;11.25;8.00;;;;;21.45;38.30;99796.47;5080977;27;46045;-61
2023/04/22 07:54:28;;;;;;;;;5.50;5.50;;;;;21.51;38.17;99798.59;5083287;27;45313;-64
2023/04/22 07:56:54;;;;;;;;;8.25;7.75;;;;;21.53;38.10;99801.97;5073272;27;66037;-62
2023/04/22 07:59:19;;;;;;;;;6.25;5.00;;;;;21.53;37.91;99800.16;5084282;27;69985;-62
2023/04/22 08:01:47;;;;;;;;;9.00;8.00;;;;;21.56;38.49;99805.19;5088035;27;63607;-62
2023/04/22 08:04:12;;;;;;;;;9.50;8.25;;;;;21.57;38.86;99812.22;5080914;27;45493;-62
2023/04/22 08:06:38;;;;;;;;;11.00;10.00;;;;;21.59;39.14;99802.28;5077889;27;67120;-62
2023/04/22 08:09:03;;;;;;;;;11.00;8.25;;;;;21.59;39.40;99802.28;5085281;27;45195;-62
2023/04/22 08:11:29;;;;;;;;;8.75;8.75;;;;;21.62;39.74;99798.53;5085478;27;46513;-63
2023/04/22 08:13:54;;;;;;;;;9.75;8.25;;;;;21.61;39.85;99800.31;5075232;27;45508;-62
2023/04/22 08:16:19;;;;;;;;;11.50;7.25;;;;;21.64;40.04;99807.22;5080652;27;45810;-62
2023/04/22 08:18:45;;;;;;;;;7.75;7.75;;;;;21.64;39.85;99804.53;5073053;27;73429;-62
2023/04/22 08:21:11;;;;;;;;;10.00;9.25;;;;;21.66;40.17;99801.75;5070169;27;46219;-62
2023/04/22 08:23:36;;;;;;;;;12.00;8.00;;;;;21.67;39.54;99806.91;5074972;27;45650;-62
2023/04/22 08:26:02;;;;;;;;;8.00;8.00;;;;;21.67;39.64;99814.91;5086929;27;45503;-62
2023/04/22 08:28:28;;;;;;;;;11.75;9.00;;;;;21.68;40.04;99818.44;5078155;27;45461;-62
2023/04/22 08:30:53;;;;;;;;;10.00;7.75;;;;;21.68;40.05;99813.09;5070137;27;45550;-62
2023/04/22 08:33:19;;;;;;;;;13.50;9.50;;;;;21.67;39.76;99820.22;5079952;27;45515;-62
2023/04/22 08:35:44;;;;;;;;;9.00;7.50;;;;;21.66;40.01;99813.25;5068368;28;45303;-62
2023/04/22 08:38:09;;;;;;;;;10.00;8.25;;;;;21.67;39.68;99817.56;5069613;27;45477;-62
2023/04/22 08:40:35;;;;;;;;;8.00;8.00;;;;;21.67;39.44;99817.56;5054411;28;47446;-62
2023/04/22 08:43:01;;;;;;;;;7.50;7.00;;;;;21.69;40.00;99814.78;5076243;27;69557;-62
2023/04/22 08:45:27;;;;;;;;;8.25;7.00;;;;;21.68;39.66;99816.59;5075466;27;45276;-62
2023/04/22 08:47:53;;;;;;;;;8.75;7.00;;;;;21.67;39.88;99808.75;5079024;27;66724;-61
2023/04/22 08:50:20;;;;;;;;;10.75;10.75;;;;;21.70;39.82;99824.47;5079061;27;45462;-62
2023/04/22 08:52:45;;;;;;;;;9.25;9.00;;;;;21.67;39.74;99817.56;5075990;28;47377;-62
2023/04/22 08:55:10;;;;;;;;;10.50;7.75;;;;;21.70;39.98;99813.81;5077700;27;59728;-61
2023/04/22 08:57:37;;;;;;;;;7.25;6.25;;;;;21.71;40.12;99823.47;5076544;27;45459;-61
2023/04/22 09:00:04;;;;;;;;;10.75;8.00;;;;;21.70;39.79;99822.63;5092950;27;45505;-61
2023/04/22 09:02:31;;;;;;;;;11.75;6.50;;;;;21.69;40.13;99826.28;5076283;27;45299;-61
2023/04/22 09:04:57;;;;;;;;;8.50;8.50;;;;;21.69;39.83;99831.63;5082283;27;45259;-61
2023/04/22 09:07:24;;;;;;;;;8.00;6.25;;;;;21.70;40.12;99827.94;5074902;28;69698;-61
2023/04/22 09:09:50;;;;;;;;;12.50;8.00;;;;;21.69;40.57;99826.28;5080690;27;46034;-62
2023/04/22 09:12:17;;;;;;;;;8.00;7.00;;;;;21.71;39.94;99834.97;5080790;27;45998;-62
2023/04/22 09:14:43;;;;;;;;;8.25;8.00;;;;;21.72;40.24;99841.13;5089565;27;45357;-62
2023/04/22 09:17:08;;;;;;;;;8.50;8.50;;;;;21.71;40.36;99837.63;5071701;27;45529;-62
2023/04/22 09:19:34;;;;;;;;;10.50;9.00;;;;;21.73;40.42;99845.50;5071976;27;69412;-62
2023/04/22 09:21:59;;;;;;;;;11.50;7.50;;;;;21.73;40.28;99835.69;5080505;27;64530;-62
2023/04/22 09:24:24;;;;;;;;;9.50;8.00;;;;;21.75;40.44;99839.03;5078473;27;45445;-61
2023/04/22 09:26:50;;;;;;;;;8.75;6.25;;;;;21.75;40.75;99838.22;5080899;27;73038;-62
2023/04/22 09:29:15;;;;;;;;;9.25;7.75;;;;;21.75;40.80;99840.88;5075700;28;46213;-61
2023/04/22 09:31:41;;;;;;;;;9.75;7.75;;;;;21.74;40.43;99847.16;5087301;27;45414;-62
2023/04/22 09:34:07;;;;;;;;;8.00;5.75;;;;;21.75;40.34;99841.72;5082556;27;45472;-62
2023/04/22 09:36:33;;;;;;;;;7.50;7.25;;;;;21.75;40.76;99843.53;5086787;27;45245;-62
2023/04/22 09:39:02;;;;;;;;;8.50;6.50;;;;;21.76;40.62;99858.53;5072247;27;63501;-62
2023/04/22 09:41:29;;;;;;;;;8.25;7.50;;;;;21.77;40.56;99870.88;5087634;27;45337;-62
2023/04/22 09:43:56;;;;;;;;;10.00;7.75;;;;;21.76;40.76;99870.03;5070422;28;45351;-62
2023/04/22 09:46:23;;;;;;;;;10.50;6.50;;;;;21.76;40.83;99870.03;5076597;27;45354;-62
2023/04/22 09:48:49;;;;;;;;;9.25;7.00;;;;;21.77;40.62;99876.19;5074063;28;46075;-62
2023/04/22 09:51:18;;;;;;;;;5.25;5.25;;;;;21.76;40.36;99877.16;5082766;27;45204;-62
2023/04/22 09:53:43;;;;;;;;;8.00;6.50;;;;;21.76;40.72;99887.81;5077672;27;45365;-62
2023/04/22 09:56:09;;;;;;;;;6.00;6.00;;;;;21.74;40.25;99881.78;5071328;28;45272;-62
2023/04/22 09:58:38;;;;;;;;;9.00;7.50;;;;;21.75;40.18;99892.31;5082235;27;46289;-62
2023/04/22 10:01:04;;;;;;;;;8.00;6.25;;;;;21.75;40.64;99905.63;5096397;27;45229;-62
2023/04/22 10:03:30;;;;;;;;;7.25;6.00;;;;;21.74;40.62;99908.41;5080512;28;45266;-62
2023/04/22 10:05:56;;;;;;;;;6.75;6.00;;;;;21.75;40.38;99913.63;5078589;28;45391;-62
2023/04/22 10:08:21;;;;;;;;;8.25;6.25;;;;;21.74;40.43;99917.28;5072252;27;45423;-62
2023/04/22 10:10:47;;;;;;;;;7.00;6.00;;;;;21.74;40.57;99916.41;5083246;27;72681;-62
2023/04/22 10:13:12;;;;;;;;;7.25;7.00;;;;;21.67;40.59;99909.94;5077098;27;45398;-62
2023/04/22 10:15:40;;;;;;;;;8.00;6.00;;;;;21.71;39.97;99917.53;5091706;27;45291;-62
2023/04/22 10:18:09;;;;;;;;;7.25;6.50;;;;;21.72;40.53;99919.19;5082089;27;45510;-62
2023/04/22 10:20:37;;;;;;;;;7.00;7.00;;;;;21.71;40.05;99908.69;5093698;27;45773;-62
2023/04/22 10:23:04;;;;;;;;;8.75;8.75;;;;;21.71;40.63;99922.84;5076950;27;45396;-62
2023/04/22 10:25:30;;;;;;;;;6.50;6.00;;;;;21.72;40.54;99923.69;5071536;27;45334;-62
2023/04/22 10:28:02;;;;;;;;;11.50;8.00;;;;;21.71;40.55;99920.19;5083961;27;45518;-62
2023/04/22 10:30:36;;;;;;;;;10.50;7.50;;;;;21.71;40.21;99920.19;5088467;27;45493;-62
2023/04/22 10:33:19;;;;;;;;;6.00;6.00;;;;;21.73;40.27;99933.38;5058852;27;45506;-62
2023/04/22 10:36:13;;;;;;;;;7.25;6.75;;;;;21.74;40.69;99940.38;5087616;27;45353;-62
2023/04/22 10:38:40;;;;;;;;;9.00;7.50;;;;;21.73;40.16;99934.22;5071184;27;46805;-62
2023/04/22 10:41:06;;;;;;;;;7.00;7.00;;;;;21.72;40.59;99943.16;5079963;28;47110;-62
2023/04/22 10:43:43;;;;;;;;;10.00;7.00;;;;;21.76;40.76;99938.41;5079045;28;45524;-62
2023/04/22 10:46:34;;;;;;;;;6.75;6.25;;;;;21.77;40.32;99945.44;5077259;27;45280;-62
2023/04/22 10:49:05;;;;;;;;;9.00;7.50;;;;;21.76;40.69;99941.94;5078241;28;46344;-62
2023/04/22 10:51:48;;;;;;;;;9.25;8.75;;;;;21.78;40.31;99949.81;5072640;27;45841;-62
2023/04/22 10:54:30;;;;;;;;;10.50;8.00;;;;;21.79;40.08;99959.47;5079056;27;45406;-62
2023/04/22 10:57:21;;;;;;;;;7.50;7.00;;;;;21.79;40.74;99962.97;5074547;27;45659;-62
2023/04/22 10:59:52;;;;;;;;;7.00;7.00;;;;;21.78;40.70;99969.28;5075083;27;46997;-62
2023/04/22 11:02:19;;;;;;;;;9.00;7.50;;;;;21.79;40.58;99972.78;5079086;27;45558;-62
2023/04/22 11:04:44;;;;;;;;;10.00;7.00;;;;;21.78;40.28;99971.13;5075742;27;45533;-62
2023/04/22 11:07:21;;;;;;;;;10.00;9.00;;;;;21.79;39.99;99978.94;5077607;28;45538;-62
2023/04/22 11:09:49;;;;;;;;;7.50;6.75;;;;;21.78;40.48;99979.94;5080758;27;46488;-62
2023/04/22 11:12:33;;;;;;;;;8.00;6.50;;;;;21.80;40.47;99987.81;5072421;27;45437;-62
2023/04/22 11:15:00;;;;;;;;;7.75;7.75;;;;;21.80;40.08;99993.13;5078144;27;45250;-62
2023/04/22 11:17:26;;;;;;;;;9.50;8.00;;;;;21.80;40.23;99995.78;5072599;28;45490;-62
2023/04/22 11:19:55;;;;;;;;;7.50;7.00;;;;;21.79;40.38;100002.09;5075941;27;72548;-62
2023/04/22 11:22:22;;;;;;;;;10.00;6.25;;;;;21.78;39.70;99997.75;5077509;28;45874;-62